Time;durP1;ratioP1;P1;durP2;ratioP2;P2;SDS_P1;SDS_P2;PMS_P1;PMS_P2;Temp;Humidity;BMP_temperature;BMP_pressure;BME280_temperature;BME280_humidity;BME280_pressure;Samples;Min_cycle;Max_cycle;Signal;HPM_P1;HPM_P2
2022/10/24 00:02:29;;;;;;;3.77;3.20;;;;;;;;;;4885266;29;21593;-70
2022/10/24 00:05:17;;;;;;;4.20;3.40;;;;;;;;;;4899528;29;20538;-70
2022/10/24 00:08:18;;;;;;;3.90;3.30;;;;;;;;;;4893033;29;20481;-70
2022/10/24 00:11:10;;;;;;;6.53;4.10;;;;;;;;;;4886794;29;20488;-69
2022/10/24 00:14:08;;;;;;;7.33;3.83;;;;;;;;;;4887973;29;20458;-70
2022/10/24 00:16:59;;;;;;;6.53;3.20;;;;;;;;;;4871989;29;22511;-70
2022/10/24 00:19:49;;;;;;;3.47;2.97;;;;;;;;;;4890731;29;20486;-70
2022/10/24 00:22:37;;;;;;;4.63;3.10;;;;;;;;;;4896840;29;20639;-70
2022/10/24 00:25:32;;;;;;;3.30;3.00;;;;;;;;;;4882752;29;20476;-69
2022/10/24 00:28:23;;;;;;;5.23;3.70;;;;;;;;;;4884018;29;20497;-70
2022/10/24 00:31:14;;;;;;;4.40;3.27;;;;;;;;;;4884022;29;20477;-70
2022/10/24 00:34:06;;;;;;;4.50;3.10;;;;;;;;;;4888068;29;20468;-69
2022/10/24 00:36:57;;;;;;;5.20;3.07;;;;;;;;;;4893083;29;20457;-70
2022/10/24 00:39:45;;;;;;;3.67;3.37;;;;;;;;;;4880168;29;20536;-70
2022/10/24 00:42:35;;;;;;;5.03;3.23;;;;;;;;;;4883603;29;20457;-70
2022/10/24 00:45:42;;;;;;;5.60;3.47;;;;;;;;;;4885640;29;20465;-67
2022/10/24 00:48:35;;;;;;;4.13;3.33;;;;;;;;;;4885107;29;20473;-69
2022/10/24 00:51:26;;;;;;;3.77;3.47;;;;;;;;;;4891428;29;21073;-67
2022/10/24 00:54:17;;;;;;;5.67;3.80;;;;;;;;;;4882164;29;20512;-68
2022/10/24 00:57:12;;;;;;;4.23;3.60;;;;;;;;;;4887114;29;20457;-68
2022/10/24 01:00:13;;;;;;;6.33;4.03;;;;;;;;;;4900792;29;20496;-69
2022/10/24 01:03:10;;;;;;;3.20;2.90;;;;;;;;;;4886224;29;21841;-68
2022/10/24 01:06:20;;;;;;;4.47;3.50;;;;;;;;;;4900746;29;20468;-68
2022/10/24 01:09:15;;;;;;;4.63;4.13;;;;;;;;;;4900342;29;20489;-69
2022/10/24 01:12:18;;;;;;;6.50;3.30;;;;;;;;;;4907385;29;20487;-70
2022/10/24 01:15:14;;;;;;;3.40;2.83;;;;;;;;;;4901631;29;20473;-69
2022/10/24 01:18:06;;;;;;;5.27;3.20;;;;;;;;;;4906104;29;20480;-69
2022/10/24 01:21:09;;;;;;;3.87;3.27;;;;;;;;;;4903418;29;20496;-69
2022/10/24 01:24:06;;;;;;;3.67;3.37;;;;;;;;;;4900120;29;20863;-69
2022/10/24 01:27:13;;;;;;;3.57;3.27;;;;;;;;;;4902402;29;20449;-69
2022/10/24 01:30:12;;;;;;;3.40;3.10;;;;;;;;;;4902507;29;21089;-70
2022/10/24 01:33:07;;;;;;;4.40;3.40;;;;;;;;;;4904615;29;20465;-69
2022/10/24 01:36:06;;;;;;;4.50;3.27;;;;;;;;;;4891323;29;20509;-70
2022/10/24 01:39:01;;;;;;;6.27;3.30;;;;;;;;;;4890603;29;20484;-68
2022/10/24 01:41:53;;;;;;;4.20;3.00;;;;;;;;;;4885348;29;20844;-69
2022/10/24 01:44:44;;;;;;;4.60;3.20;;;;;;;;;;4892515;29;20485;-69
2022/10/24 01:47:39;;;;;;;6.30;3.83;;;;;;;;;;4901810;29;20840;-68
2022/10/24 01:50:34;;;;;;;3.63;3.23;;;;;;;;;;4889539;29;20488;-69
2022/10/24 01:53:28;;;;;;;6.07;3.13;;;;;;;;;;4905039;29;20457;-69
2022/10/24 01:56:19;;;;;;;3.30;3.10;;;;;;;;;;4894107;29;20923;-68
2022/10/24 01:59:29;;;;;;;3.53;3.10;;;;;;;;;;4888475;29;20481;-69
2022/10/24 02:02:23;;;;;;;3.33;3.03;;;;;;;;;;4881583;29;21100;-69
2022/10/24 02:05:22;;;;;;;4.97;3.17;;;;;;;;;;4891869;29;20481;-69
2022/10/24 02:08:16;;;;;;;3.43;3.13;;;;;;;;;;4894384;29;20512;-70
2022/10/24 02:11:08;;;;;;;3.50;3.20;;;;;;;;;;4899899;29;20481;-68
2022/10/24 02:14:06;;;;;;;3.93;3.60;;;;;;;;;;4884301;29;20461;-68
2022/10/24 02:16:56;;;;;;;5.17;3.37;;;;;;;;;;4897182;29;20461;-69
2022/10/24 02:19:49;;;;;;;4.00;3.60;;;;;;;;;;4900350;29;21021;-69
2022/10/24 02:22:48;;;;;;;3.83;3.43;;;;;;;;;;4893988;29;20468;-69
2022/10/24 02:25:40;;;;;;;3.63;3.33;;;;;;;;;;4892818;29;21025;-68
2022/10/24 02:28:33;;;;;;;3.60;3.30;;;;;;;;;;4891487;29;20540;-69
2022/10/24 02:31:23;;;;;;;3.67;3.37;;;;;;;;;;4890124;29;20492;-69
2022/10/24 02:34:16;;;;;;;3.87;3.30;;;;;;;;;;4894163;29;20854;-68
2022/10/24 02:37:07;;;;;;;4.17;3.40;;;;;;;;;;4888326;29;20532;-68
2022/10/24 02:40:03;;;;;;;4.47;3.80;;;;;;;;;;4897979;29;20485;-68
2022/10/24 02:42:53;;;;;;;3.80;3.40;;;;;;;;;;4887279;29;20457;-68
2022/10/24 02:45:52;;;;;;;3.30;3.00;;;;;;;;;;4899493;29;20486;-69
2022/10/24 02:48:45;;;;;;;3.53;3.13;;;;;;;;;;4891008;29;20530;-70
2022/10/24 02:51:38;;;;;;;3.87;3.50;;;;;;;;;;4885523;29;20464;-69
2022/10/24 02:54:36;;;;;;;5.30;3.37;;;;;;;;;;4888656;29;21015;-68
2022/10/24 02:57:28;;;;;;;3.27;3.07;;;;;;;;;;4895062;29;20458;-69
2022/10/24 03:00:23;;;;;;;4.20;2.93;;;;;;;;;;4887755;29;20933;-68
2022/10/24 03:03:14;;;;;;;4.03;3.37;;;;;;;;;;4886137;29;20470;-69
2022/10/24 03:06:03;;;;;;;5.73;3.43;;;;;;;;;;4902343;29;20458;-70
2022/10/24 03:08:51;;;;;;;5.47;3.50;;;;;;;;;;4910641;29;20549;-69
2022/10/24 03:11:42;;;;;;;4.70;3.77;;;;;;;;;;4907215;29;20469;-69
2022/10/24 03:14:37;;;;;;;4.83;3.67;;;;;;;;;;4908440;29;20471;-69
2022/10/24 03:17:30;;;;;;;4.20;3.50;;;;;;;;;;4898511;29;20469;-68
2022/10/24 03:20:23;;;;;;;4.37;3.37;;;;;;;;;;4887865;29;20497;-68
2022/10/24 03:23:18;;;;;;;4.27;3.50;;;;;;;;;;4884393;29;20549;-68
2022/10/24 03:26:08;;;;;;;4.00;3.60;;;;;;;;;;4887902;29;20486;-69
2022/10/24 03:29:02;;;;;;;6.20;3.80;;;;;;;;;;4901239;29;20461;-68
2022/10/24 03:31:52;;;;;;;4.03;3.50;;;;;;;;;;4908271;29;20457;-68
2022/10/24 03:34:40;;;;;;;3.50;3.20;;;;;;;;;;4898851;29;20522;-69
2022/10/24 03:37:30;;;;;;;5.50;3.90;;;;;;;;;;4884519;29;20570;-68
2022/10/24 03:40:23;;;;;;;4.50;3.87;;;;;;;;;;4880816;29;20525;-69
2022/10/24 03:43:12;;;;;;;5.07;3.83;;;;;;;;;;4879643;29;20454;-69
2022/10/24 03:46:04;;;;;;;4.83;4.30;;;;;;;;;;4884040;29;20573;-68
2022/10/24 03:48:54;;;;;;;4.77;3.80;;;;;;;;;;4883550;29;20477;-68
2022/10/24 03:51:43;;;;;;;4.63;4.23;;;;;;;;;;4885464;29;20461;-68
2022/10/24 03:54:34;;;;;;;5.60;3.67;;;;;;;;;;4885257;29;20446;-69
2022/10/24 03:57:29;;;;;;;5.10;4.10;;;;;;;;;;4888027;29;20492;-68
2022/10/24 04:00:21;;;;;;;5.80;3.73;;;;;;;;;;4882555;29;20580;-69
2022/10/24 04:03:13;;;;;;;4.33;3.90;;;;;;;;;;4881119;29;20544;-68
2022/10/24 04:06:03;;;;;;;6.80;3.63;;;;;;;;;;4895262;29;20572;-70
2022/10/24 04:09:02;;;;;;;4.50;3.90;;;;;;;;;;4886192;29;20490;-68
2022/10/24 04:11:52;;;;;;;5.20;4.30;;;;;;;;;;4884876;29;20453;-69
2022/10/24 04:14:45;;;;;;;4.47;4.10;;;;;;;;;;4893236;29;20461;-69
2022/10/24 04:17:34;;;;;;;5.07;4.20;;;;;;;;;;4883874;29;20515;-69
2022/10/24 04:20:28;;;;;;;5.13;3.87;;;;;;;;;;4888570;29;21052;-69
2022/10/24 04:23:22;;;;;;;5.70;4.10;;;;;;;;;;4888795;29;22342;-69
2022/10/24 04:26:13;;;;;;;5.20;3.83;;;;;;;;;;4891322;29;20485;-69
2022/10/24 04:29:02;;;;;;;4.20;3.80;;;;;;;;;;4897106;28;20481;-68
2022/10/24 04:31:53;;;;;;;6.07;3.70;;;;;;;;;;4885555;29;20462;-69
2022/10/24 04:34:51;;;;;;;7.13;3.83;;;;;;;;;;4887265;29;21841;-68
2022/10/24 04:37:40;;;;;;;4.20;3.90;;;;;;;;;;4888890;29;20536;-69
2022/10/24 04:40:35;;;;;;;4.73;3.80;;;;;;;;;;4894026;29;20481;-69
2022/10/24 04:43:27;;;;;;;7.20;4.53;;;;;;;;;;4887449;29;20484;-69
2022/10/24 04:46:17;;;;;;;4.63;3.70;;;;;;;;;;4893718;29;20493;-68
2022/10/24 04:49:11;;;;;;;4.57;4.17;;;;;;;;;;4886587;29;21318;-70
2022/10/24 04:52:03;;;;;;;8.90;4.43;;;;;;;;;;4888245;29;20461;-68
2022/10/24 04:54:55;;;;;;;7.37;3.90;;;;;;;;;;4888258;29;20528;-69
2022/10/24 04:57:52;;;;;;;5.03;4.37;;;;;;;;;;4884417;28;20608;-72
2022/10/24 05:00:48;;;;;;;8.27;3.70;;;;;;;;;;4883760;29;20481;-73
2022/10/24 05:03:38;;;;;;;4.67;4.13;;;;;;;;;;4884886;29;20461;-68
2022/10/24 05:06:26;;;;;;;4.77;4.23;;;;;;;;;;4892366;29;20493;-68
2022/10/24 05:09:20;;;;;;;7.13;4.07;;;;;;;;;;4889666;29;20493;-68
2022/10/24 05:12:13;;;;;;;5.33;4.30;;;;;;;;;;4886531;29;20484;-69
2022/10/24 05:15:05;;;;;;;5.20;4.70;;;;;;;;;;4896442;29;20462;-69
2022/10/24 05:17:56;;;;;;;4.87;3.77;;;;;;;;;;4888854;29;20508;-69
2022/10/24 05:20:49;;;;;;;6.10;3.80;;;;;;;;;;4889335;29;20494;-69
2022/10/24 05:23:38;;;;;;;4.33;3.87;;;;;;;;;;4884895;29;20492;-69
2022/10/24 05:26:27;;;;;;;6.53;4.43;;;;;;;;;;4884815;29;20485;-68
2022/10/24 05:29:15;;;;;;;5.50;3.90;;;;;;;;;;4891721;29;20492;-69
2022/10/24 05:32:06;;;;;;;5.77;4.43;;;;;;;;;;4894283;29;20540;-69
2022/10/24 05:34:54;;;;;;;4.63;4.00;;;;;;;;;;4875397;29;20453;-67
2022/10/24 05:37:43;;;;;;;5.90;4.30;;;;;;;;;;4870877;29;20524;-67
2022/10/24 05:40:31;;;;;;;4.90;4.03;;;;;;;;;;4861522;29;20600;-68
2022/10/24 05:43:20;;;;;;;6.13;4.40;;;;;;;;;;4879962;29;21391;-68
2022/10/24 05:46:09;;;;;;;4.97;4.00;;;;;;;;;;4871395;29;20492;-68
2022/10/24 05:48:58;;;;;;;5.43;3.80;;;;;;;;;;4882348;29;20592;-69
2022/10/24 05:51:47;;;;;;;8.00;4.50;;;;;;;;;;4898603;29;20936;-69
2022/10/24 05:54:36;;;;;;;4.77;3.60;;;;;;;;;;4892875;29;21281;-68
2022/10/24 05:57:44;;;;;;;6.93;4.17;;;;;;;;;;4883936;29;20457;-69
2022/10/24 06:00:33;;;;;;;6.23;3.87;;;;;;;;;;4884003;29;22065;-68
2022/10/24 06:03:22;;;;;;;6.73;4.17;;;;;;;;;;4878221;29;20466;-69
2022/10/24 06:06:12;;;;;;;4.73;4.30;;;;;;;;;;4875102;29;20492;-69
2022/10/24 06:09:01;;;;;;;12.60;4.10;;;;;;;;;;4872678;29;20493;-69
2022/10/24 06:11:50;;;;;;;5.63;3.87;;;;;;;;;;4897607;29;20457;-69
2022/10/24 06:14:39;;;;;;;11.10;4.53;;;;;;;;;;4886383;29;20472;-69
2022/10/24 06:17:28;;;;;;;6.50;4.27;;;;;;;;;;4878777;29;20461;-68
2022/10/24 06:20:16;;;;;;;6.60;4.53;;;;;;;;;;4881120;29;20488;-68
2022/10/24 06:23:06;;;;;;;4.87;4.03;;;;;;;;;;4876457;29;20560;-69
2022/10/24 06:25:55;;;;;;;7.20;3.60;;;;;;;;;;4871182;29;20619;-69
2022/10/24 06:28:43;;;;;;;5.47;4.47;;;;;;;;;;4869093;29;20540;-68
2022/10/24 06:31:34;;;;;;;5.43;4.10;;;;;;;;;;4877594;29;20479;-68
2022/10/24 06:34:23;;;;;;;5.50;4.23;;;;;;;;;;4870489;29;20560;-69
2022/10/24 06:37:11;;;;;;;8.97;4.87;;;;;;;;;;4864417;29;20462;-68
2022/10/24 06:40:01;;;;;;;4.70;4.30;;;;;;;;;;4883159;29;21512;-68
2022/10/24 06:42:50;;;;;;;5.90;4.07;;;;;;;;;;4873561;29;20813;-69
2022/10/24 06:45:38;;;;;;;6.77;4.30;;;;;;;;;;4870492;29;20485;-68
2022/10/24 06:48:27;;;;;;;4.87;4.37;;;;;;;;;;4864574;29;20481;-68
2022/10/24 06:51:16;;;;;;;9.57;4.40;;;;;;;;;;4869761;29;20481;-68
2022/10/24 06:54:04;;;;;;;5.20;4.20;;;;;;;;;;4883142;29;20465;-69
2022/10/24 06:56:54;;;;;;;4.87;4.37;;;;;;;;;;4875433;29;20457;-69
2022/10/24 06:59:43;;;;;;;7.13;4.20;;;;;;;;;;4872228;29;21116;-69
2022/10/24 07:02:32;;;;;;;8.07;4.47;;;;;;;;;;4890584;29;21000;-68
2022/10/24 07:05:21;;;;;;;6.27;5.43;;;;;;;;;;4886980;29;20527;-69
2022/10/24 07:08:09;;;;;;;5.23;4.07;;;;;;;;;;4886622;29;20564;-68
2022/10/24 07:10:58;;;;;;;7.07;5.43;;;;;;;;;;4889574;29;20477;-69
2022/10/24 07:13:48;;;;;;;4.70;4.30;;;;;;;;;;4872088;29;20458;-69
2022/10/24 07:16:37;;;;;;;4.53;3.80;;;;;;;;;;4884488;29;20479;-68
2022/10/24 07:19:28;;;;;;;5.67;3.97;;;;;;;;;;4892527;29;20497;-69
2022/10/24 07:22:20;;;;;;;6.83;3.80;;;;;;;;;;4880862;29;20472;-69
2022/10/24 07:25:09;;;;;;;6.47;4.33;;;;;;;;;;4877772;29;20462;-68
2022/10/24 07:27:57;;;;;;;5.30;4.17;;;;;;;;;;4870982;29;20528;-68
2022/10/24 07:30:47;;;;;;;5.50;4.13;;;;;;;;;;4880874;29;20953;-69
2022/10/24 07:33:38;;;;;;;7.27;4.37;;;;;;;;;;4887907;29;20545;-68
2022/10/24 07:36:28;;;;;;;7.83;4.23;;;;;;;;;;4888673;29;20593;-69
2022/10/24 07:39:17;;;;;;;4.73;4.10;;;;;;;;;;4883740;29;20548;-69
2022/10/24 07:42:05;;;;;;;6.73;4.10;;;;;;;;;;4884235;29;20982;-68
2022/10/24 07:44:56;;;;;;;7.20;4.27;;;;;;;;;;4891563;29;20456;-68
2022/10/24 07:47:47;;;;;;;4.73;3.67;;;;;;;;;;4889007;29;20492;-69
2022/10/24 07:50:36;;;;;;;6.10;4.40;;;;;;;;;;4892474;29;20488;-68
2022/10/24 07:53:25;;;;;;;6.97;3.70;;;;;;;;;;4886777;29;23474;-68
2022/10/24 07:56:14;;;;;;;6.70;4.83;;;;;;;;;;4891751;29;20523;-67
2022/10/24 07:59:03;;;;;;;5.53;4.73;;;;;;;;;;4884856;29;20604;-68
2022/10/24 08:01:57;;;;;;;5.43;4.13;;;;;;;;;;4891565;29;21550;-68
2022/10/24 08:04:47;;;;;;;5.43;3.87;;;;;;;;;;4882536;29;20454;-68
2022/10/24 08:07:35;;;;;;;10.53;4.73;;;;;;;;;;4875475;29;21255;-68
2022/10/24 08:10:24;;;;;;;6.80;3.97;;;;;;;;;;4875856;29;20622;-68
2022/10/24 08:13:13;;;;;;;6.50;4.30;;;;;;;;;;4869175;29;20477;-69
2022/10/24 08:16:02;;;;;;;6.23;3.90;;;;;;;;;;4863476;29;22145;-68
2022/10/24 08:18:51;;;;;;;4.70;3.90;;;;;;;;;;4876654;29;20538;-68
2022/10/24 08:21:41;;;;;;;7.90;3.83;;;;;;;;;;4874101;29;20599;-68
2022/10/24 08:24:30;;;;;;;8.23;4.20;;;;;;;;;;4882712;29;20567;-69
2022/10/24 08:27:18;;;;;;;8.73;4.40;;;;;;;;;;4881655;29;20547;-68
2022/10/24 08:30:10;;;;;;;6.57;4.07;;;;;;;;;;4857982;29;20584;-68
2022/10/24 08:32:58;;;;;;;10.40;4.87;;;;;;;;;;4862391;29;21049;-69
2022/10/24 08:35:47;;;;;;;6.30;4.33;;;;;;;;;;4869374;29;20463;-68
2022/10/24 08:38:37;;;;;;;6.87;3.97;;;;;;;;;;4862948;29;23675;-69
2022/10/24 08:41:27;;;;;;;5.73;4.50;;;;;;;;;;4861661;29;20486;-69
2022/10/24 08:44:20;;;;;;;8.83;4.20;;;;;;;;;;4866517;29;20463;-69
2022/10/24 08:47:13;;;;;;;5.93;4.10;;;;;;;;;;4861857;29;20545;-70
2022/10/24 08:50:05;;;;;;;7.03;4.10;;;;;;;;;;4868875;29;20490;-69
2022/10/24 08:52:58;;;;;;;6.40;3.37;;;;;;;;;;4873897;29;20477;-69
2022/10/24 08:55:52;;;;;;;5.57;3.60;;;;;;;;;;4872424;29;20454;-68
2022/10/24 08:58:43;;;;;;;6.70;3.40;;;;;;;;;;4865059;29;20489;-69
2022/10/24 09:01:33;;;;;;;4.93;3.40;;;;;;;;;;4871626;29;20560;-69
2022/10/24 09:04:23;;;;;;;5.00;3.30;;;;;;;;;;4866661;29;20830;-69
2022/10/24 09:07:16;;;;;;;6.30;2.83;;;;;;;;;;4886057;29;20501;-70
2022/10/24 09:10:06;;;;;;;7.50;2.70;;;;;;;;;;4870009;29;20620;-69
2022/10/24 09:12:56;;;;;;;6.03;2.87;;;;;;;;;;4866501;29;20478;-69
2022/10/24 09:15:46;;;;;;;3.50;2.83;;;;;;;;;;4869689;29;20454;-70
2022/10/24 09:18:37;;;;;;;4.93;3.57;;;;;;;;;;4887350;29;20477;-69
2022/10/24 09:21:26;;;;;;;5.53;3.27;;;;;;;;;;4894185;29;22199;-69
2022/10/24 09:24:20;;;;;;;4.93;3.10;;;;;;;;;;4887630;29;21886;-68
2022/10/24 09:27:12;;;;;;;7.20;3.50;;;;;;;;;;4899915;29;20949;-69
2022/10/24 09:30:02;;;;;;;5.93;2.77;;;;;;;;;;4885282;29;20497;-70
2022/10/24 09:32:54;;;;;;;8.67;3.20;;;;;;;;;;4896911;29;21371;-69
2022/10/24 09:35:43;;;;;;;4.40;2.80;;;;;;;;;;4873304;29;20461;-69
2022/10/24 09:38:33;;;;;;;5.20;2.47;;;;;;;;;;4879103;29;20543;-69
2022/10/24 09:41:23;;;;;;;6.10;2.60;;;;;;;;;;4877923;29;21122;-69
2022/10/24 09:44:28;;;;;;;4.93;2.43;;;;;;;;;;4882286;29;20473;-68
2022/10/24 09:47:25;;;;;;;5.20;2.90;;;;;;;;;;4885475;29;20492;-69
2022/10/24 09:50:19;;;;;;;4.00;2.43;;;;;;;;;;4871051;29;20526;-70
2022/10/24 09:53:21;;;;;;;6.20;2.70;;;;;;;;;;4864998;29;20616;-69
2022/10/24 09:56:10;;;;;;;7.30;3.33;;;;;;;;;;4854585;29;20492;-70
2022/10/24 09:59:17;;;;;;;4.53;2.83;;;;;;;;;;4868600;29;20921;-69
2022/10/24 10:02:17;;;;;;;4.63;2.27;;;;;;;;;;4877871;29;20600;-70
2022/10/24 10:05:17;;;;;;;4.30;2.43;;;;;;;;;;4885589;29;20461;-70
2022/10/24 10:08:10;;;;;;;7.20;3.13;;;;;;;;;;4883642;29;20544;-69
2022/10/24 10:11:03;;;;;;;5.30;2.43;;;;;;;;;;4881556;29;20493;-69
2022/10/24 10:13:54;;;;;;;5.43;2.90;;;;;;;;;;4877960;29;20465;-67
2022/10/24 10:16:42;;;;;;;4.60;2.70;;;;;;;;;;4883353;29;20487;-68
2022/10/24 10:19:32;;;;;;;6.90;2.93;;;;;;;;;;4872502;29;20832;-68
2022/10/24 10:22:24;;;;;;;4.20;2.53;;;;;;;;;;4883678;29;20470;-69
2022/10/24 10:25:28;;;;;;;4.00;2.20;;;;;;;;;;4900816;29;20870;-68
2022/10/24 10:28:20;;;;;;;9.07;2.70;;;;;;;;;;4890044;29;20485;-68
2022/10/24 10:31:10;;;;;;;2.97;2.20;;;;;;;;;;4878406;29;20488;-68
2022/10/24 10:34:06;;;;;;;5.10;2.50;;;;;;;;;;4873560;29;20465;-68
2022/10/24 10:37:02;;;;;;;5.50;2.37;;;;;;;;;;4880560;29;20465;-68
2022/10/24 10:40:02;;;;;;;5.47;3.27;;;;;;;;;;4880779;29;20591;-69
2022/10/24 10:42:57;;;;;;;4.30;2.70;;;;;;;;;;4887686;29;20504;-69
2022/10/24 10:45:46;;;;;;;5.50;2.10;;;;;;;;;;4893071;29;20465;-68
2022/10/24 10:48:41;;;;;;;7.77;2.40;;;;;;;;;;4896752;29;20490;-69
2022/10/24 10:51:36;;;;;;;4.20;2.50;;;;;;;;;;4894799;29;20499;-69
2022/10/24 10:54:33;;;;;;;4.03;2.23;;;;;;;;;;4890232;29;20461;-70
2022/10/24 10:57:25;;;;;;;3.83;1.90;;;;;;;;;;4889297;29;20523;-68
2022/10/24 11:00:18;;;;;;;6.63;2.33;;;;;;;;;;4864688;29;20525;-68
2022/10/24 11:03:15;;;;;;;5.77;2.03;;;;;;;;;;4887061;29;20463;-69
2022/10/24 11:06:13;;;;;;;4.10;2.17;;;;;;;;;;4880198;29;20477;-69
2022/10/24 11:09:22;;;;;;;3.17;1.90;;;;;;;;;;4885380;29;20501;-69
2022/10/24 11:12:13;;;;;;;3.43;2.10;;;;;;;;;;4893196;29;20461;-69
2022/10/24 11:15:07;;;;;;;5.23;2.37;;;;;;;;;;4882805;29;20458;-69
2022/10/24 11:17:59;;;;;;;4.20;2.27;;;;;;;;;;4892398;29;20998;-69
2022/10/24 11:20:51;;;;;;;6.03;2.53;;;;;;;;;;4894953;29;20496;-69
2022/10/24 11:23:43;;;;;;;5.57;2.70;;;;;;;;;;4881528;29;20864;-69
2022/10/24 11:26:37;;;;;;;4.30;1.87;;;;;;;;;;4889273;29;20464;-69
2022/10/24 11:29:30;;;;;;;2.97;1.87;;;;;;;;;;4880560;29;20497;-69
2022/10/24 11:32:24;;;;;;;4.20;2.10;;;;;;;;;;4902217;29;20494;-69
2022/10/24 11:35:17;;;;;;;1.73;1.57;;;;;;;;;;4894992;29;20779;-69
2022/10/24 11:38:08;;;;;;;3.50;2.00;;;;;;;;;;4905695;29;20477;-68
2022/10/24 11:40:59;;;;;;;3.30;1.70;;;;;;;;;;4907070;29;20484;-69
2022/10/24 11:43:49;;;;;;;6.43;1.90;;;;;;;;;;4897993;29;20582;-68
2022/10/24 11:46:41;;;;;;;2.37;1.73;;;;;;;;;;4902226;29;20992;-68
2022/10/24 11:49:33;;;;;;;4.43;1.93;;;;;;;;;;4901506;29;20489;-69
2022/10/24 11:52:24;;;;;;;3.10;1.57;;;;;;;;;;4903175;29;20543;-70
2022/10/24 11:55:17;;;;;;;2.77;1.60;;;;;;;;;;4900565;29;20886;-71
2022/10/24 11:58:07;;;;;;;3.23;1.70;;;;;;;;;;4900753;29;20481;-70
2022/10/24 12:01:13;;;;;;;4.53;1.90;;;;;;;;;;4899561;29;20491;-70
2022/10/24 12:04:19;;;;;;;2.60;1.87;;;;;;;;;;4894878;29;20969;-69
2022/10/24 12:07:31;;;;;;;4.13;1.90;;;;;;;;;;4903111;29;20457;-70
2022/10/24 12:10:26;;;;;;;3.97;1.80;;;;;;;;;;4898897;29;20502;-70
2022/10/24 12:13:32;;;;;;;4.10;1.60;;;;;;;;;;4891224;29;20454;-70
2022/10/24 12:16:28;;;;;;;2.57;1.57;;;;;;;;;;4900388;29;20552;-71
2022/10/24 12:19:18;;;;;;;5.37;1.87;;;;;;;;;;4896424;29;20540;-71
2022/10/24 12:22:07;;;;;;;2.37;1.60;;;;;;;;;;4899892;29;20998;-70
2022/10/24 12:25:05;;;;;;;2.40;1.60;;;;;;;;;;4908062;29;20461;-71
2022/10/24 12:27:55;;;;;;;2.53;1.70;;;;;;;;;;4899917;29;21028;-70
2022/10/24 12:30:43;;;;;;;3.20;1.43;;;;;;;;;;4888766;29;21029;-69
2022/10/24 12:33:32;;;;;;;2.77;1.67;;;;;;;;;;4872250;29;20840;-68
2022/10/24 12:36:42;;;;;;;3.23;1.50;;;;;;;;;;4883720;29;20453;-70
2022/10/24 12:39:34;;;;;;;3.23;1.67;;;;;;;;;;4876909;29;20500;-68
2022/10/24 12:42:37;;;;;;;2.93;1.60;;;;;;;;;;4884167;29;20461;-69
2022/10/24 12:45:29;;;;;;;3.53;1.80;;;;;;;;;;4890937;29;20458;-69
2022/10/24 12:48:34;;;;;;;6.27;1.77;;;;;;;;;;4898577;29;22579;-70
2022/10/24 12:51:28;;;;;;;4.03;1.70;;;;;;;;;;4898076;29;20496;-69
2022/10/24 12:54:20;;;;;;;3.40;1.43;;;;;;;;;;4884735;29;20461;-69
2022/10/24 12:57:26;;;;;;;2.83;1.60;;;;;;;;;;4885040;29;20460;-69
2022/10/24 13:00:24;;;;;;;1.90;1.47;;;;;;;;;;4883715;29;20855;-69
2022/10/24 13:03:17;;;;;;;2.70;1.50;;;;;;;;;;4873549;29;20839;-69
2022/10/24 13:06:07;;;;;;;3.47;1.57;;;;;;;;;;4885080;29;20465;-69
2022/10/24 13:09:03;;;;;;;2.93;1.80;;;;;;;;;;4895922;29;20500;-69
2022/10/24 13:11:57;;;;;;;2.37;1.60;;;;;;;;;;4897108;29;22135;-69
2022/10/24 13:15:04;;;;;;;5.43;1.90;;;;;;;;;;4890793;29;20501;-69
2022/10/24 13:18:00;;;;;;;3.40;1.70;;;;;;;;;;4905594;29;21060;-70
2022/10/24 13:20:49;;;;;;;5.00;1.80;;;;;;;;;;4895113;29;20485;-68
2022/10/24 13:23:38;;;;;;;3.00;1.80;;;;;;;;;;4895766;29;20457;-69
2022/10/24 13:26:37;;;;;;;4.60;2.00;;;;;;;;;;4893005;29;20465;-68
2022/10/24 13:29:43;;;;;;;3.70;1.90;;;;;;;;;;4892778;29;20551;-69
2022/10/24 13:32:34;;;;;;;4.00;1.90;;;;;;;;;;4898590;29;20453;-68
2022/10/24 13:35:25;;;;;;;3.10;1.60;;;;;;;;;;4897157;29;21369;-69
2022/10/24 13:38:14;;;;;;;3.27;2.00;;;;;;;;;;4899069;29;20489;-70
2022/10/24 13:41:04;;;;;;;3.27;1.83;;;;;;;;;;4897569;29;21893;-71
2022/10/24 13:43:53;;;;;;;5.57;1.93;;;;;;;;;;4894495;29;20470;-72
2022/10/24 13:46:45;;;;;;;5.60;1.77;;;;;;;;;;4884878;29;20461;-69
2022/10/24 13:49:40;;;;;;;3.30;1.77;;;;;;;;;;4885638;29;20597;-69
2022/10/24 13:52:33;;;;;;;2.90;1.90;;;;;;;;;;4891964;29;20614;-70
2022/10/24 13:55:24;;;;;;;4.40;1.80;;;;;;;;;;4883315;29;22557;-69
2022/10/24 13:58:14;;;;;;;5.27;2.63;;;;;;;;;;4867677;29;20593;-70
2022/10/24 14:01:05;;;;;;;3.80;1.80;;;;;;;;;;4870977;29;20477;-70
2022/10/24 14:03:54;;;;;;;3.03;1.63;;;;;;;;;;4868623;29;20476;-69
2022/10/24 14:06:43;;;;;;;5.33;1.80;;;;;;;;;;4866995;29;20996;-70
2022/10/24 14:09:39;;;;;;;2.83;1.90;;;;;;;;;;4872931;29;20490;-70
2022/10/24 14:12:31;;;;;;;5.70;2.00;;;;;;;;;;4875520;29;21843;-70
2022/10/24 14:15:21;;;;;;;2.80;1.80;;;;;;;;;;4871498;29;20490;-70
2022/10/24 14:18:13;;;;;;;2.93;1.70;;;;;;;;;;4873446;29;20504;-69
2022/10/24 14:21:04;;;;;;;5.17;1.50;;;;;;;;;;4872468;29;20488;-69
2022/10/24 14:23:57;;;;;;;2.90;1.53;;;;;;;;;;4872811;29;20461;-69
2022/10/24 14:26:50;;;;;;;2.70;1.60;;;;;;;;;;4857929;29;20469;-68
2022/10/24 14:29:39;;;;;;;3.83;1.73;;;;;;;;;;4871547;29;20493;-69
2022/10/24 14:32:28;;;;;;;4.33;1.77;;;;;;;;;;4872355;29;20468;-70
2022/10/24 14:35:21;;;;;;;2.70;1.97;;;;;;;;;;4872996;29;20940;-70
2022/10/24 14:38:14;;;;;;;3.00;1.70;;;;;;;;;;4870103;29;21029;-68
2022/10/24 14:41:04;;;;;;;3.30;1.70;;;;;;;;;;4881238;29;20524;-70
2022/10/24 14:43:59;;;;;;;2.97;1.60;;;;;;;;;;4880189;29;20472;-70
2022/10/24 14:46:48;;;;;;;3.87;1.50;;;;;;;;;;4888187;29;20545;-69
2022/10/24 14:49:37;;;;;;;3.50;1.60;;;;;;;;;;4878445;29;20612;-69
2022/10/24 14:52:27;;;;;;;4.63;1.77;;;;;;;;;;4880083;29;20556;-69
2022/10/24 14:55:19;;;;;;;8.03;1.60;;;;;;;;;;4872073;29;20569;-70
2022/10/24 14:58:20;;;;;;;3.90;1.77;;;;;;;;;;4868694;29;20520;-70
2022/10/24 15:01:16;;;;;;;7.50;1.90;;;;;;;;;;4867574;29;20630;-69
2022/10/24 15:04:05;;;;;;;2.93;1.80;;;;;;;;;;4876794;29;20461;-69
2022/10/24 15:06:56;;;;;;;4.60;2.00;;;;;;;;;;4879545;29;20521;-70
2022/10/24 15:09:52;;;;;;;4.27;1.70;;;;;;;;;;4874199;29;20576;-69
2022/10/24 15:12:41;;;;;;;3.03;1.73;;;;;;;;;;4873388;29;20465;-70
2022/10/24 15:15:31;;;;;;;6.63;1.60;;;;;;;;;;4877301;29;20496;-69
2022/10/24 15:18:24;;;;;;;3.13;2.00;;;;;;;;;;4884517;29;20481;-69
2022/10/24 15:21:14;;;;;;;3.37;1.93;;;;;;;;;;4877008;29;20493;-68
2022/10/24 15:24:03;;;;;;;4.33;1.93;;;;;;;;;;4870480;29;20525;-69
2022/10/24 15:26:52;;;;;;;4.20;1.73;;;;;;;;;;4884808;29;20533;-69
2022/10/24 15:29:40;;;;;;;7.27;1.97;;;;;;;;;;4878596;29;20502;-69
2022/10/24 15:32:29;;;;;;;3.50;1.83;;;;;;;;;;4877369;29;20565;-69
2022/10/24 15:35:19;;;;;;;3.63;2.47;;;;;;;;;;4879552;29;21886;-69
2022/10/24 15:38:12;;;;;;;5.03;1.83;;;;;;;;;;4872746;29;20569;-69
2022/10/24 15:41:01;;;;;;;3.00;1.70;;;;;;;;;;4879447;29;20588;-68
2022/10/24 15:43:50;;;;;;;4.57;1.97;;;;;;;;;;4881617;29;20624;-69
2022/10/24 15:46:38;;;;;;;2.53;1.77;;;;;;;;;;4872335;29;20465;-69
2022/10/24 15:49:27;;;;;;;4.23;2.10;;;;;;;;;;4879131;29;20485;-70
2022/10/24 15:52:17;;;;;;;3.80;1.83;;;;;;;;;;4872058;29;20545;-69
2022/10/24 15:55:06;;;;;;;2.83;1.87;;;;;;;;;;4877818;29;20565;-69
2022/10/24 15:57:58;;;;;;;4.30;2.00;;;;;;;;;;4872439;29;20509;-70
2022/10/24 16:00:47;;;;;;;6.20;2.37;;;;;;;;;;4876351;29;20917;-69
2022/10/24 16:03:37;;;;;;;4.23;1.67;;;;;;;;;;4852077;29;20473;-68
2022/10/24 16:06:26;;;;;;;9.67;2.20;;;;;;;;;;4872566;29;21504;-68
2022/10/24 16:09:17;;;;;;;4.07;1.80;;;;;;;;;;4865548;29;20572;-69
2022/10/24 16:12:06;;;;;;;3.23;1.97;;;;;;;;;;4872409;29;20494;-69
2022/10/24 16:14:54;;;;;;;4.90;1.90;;;;;;;;;;4874426;29;21382;-69
2022/10/24 16:17:43;;;;;;;4.40;2.20;;;;;;;;;;4876748;29;20510;-67
2022/10/24 16:20:32;;;;;;;4.50;2.13;;;;;;;;;;4879053;29;21034;-68
2022/10/24 16:23:21;;;;;;;6.40;2.17;;;;;;;;;;4873097;29;20953;-68
2022/10/24 16:26:11;;;;;;;4.90;2.10;;;;;;;;;;4869988;29;21442;-68
2022/10/24 16:28:59;;;;;;;3.20;2.13;;;;;;;;;;4853921;29;20543;-68
2022/10/24 16:31:49;;;;;;;7.67;2.30;;;;;;;;;;4871371;29;20796;-69
2022/10/24 16:34:38;;;;;;;3.83;1.97;;;;;;;;;;4887725;29;20475;-67
2022/10/24 16:37:26;;;;;;;3.33;1.83;;;;;;;;;;4884454;29;20470;-70
2022/10/24 16:40:15;;;;;;;4.80;2.00;;;;;;;;;;4850631;29;20533;-68
2022/10/24 16:43:05;;;;;;;4.60;1.90;;;;;;;;;;4852288;29;20477;-69
2022/10/24 16:45:58;;;;;;;3.20;2.07;;;;;;;;;;4851280;29;20538;-68
2022/10/24 16:48:46;;;;;;;4.87;1.90;;;;;;;;;;4862570;29;20485;-68
2022/10/24 16:51:35;;;;;;;5.43;2.57;;;;;;;;;;4879626;29;20488;-68
2022/10/24 16:54:30;;;;;;;6.57;2.63;;;;;;;;;;4858894;29;20463;-67
2022/10/24 16:57:19;;;;;;;5.77;2.63;;;;;;;;;;4874983;29;20548;-68
2022/10/24 17:00:13;;;;;;;5.97;2.00;;;;;;;;;;4874018;29;20551;-66
2022/10/24 17:03:01;;;;;;;3.43;2.03;;;;;;;;;;4871340;29;20819;-68
2022/10/24 17:05:51;;;;;;;3.83;2.50;;;;;;;;;;4867186;29;20465;-68
2022/10/24 17:08:40;;;;;;;6.77;2.10;;;;;;;;;;4873182;29;20497;-68
2022/10/24 17:11:28;;;;;;;5.03;1.57;;;;;;;;;;4891823;29;22982;-67
2022/10/24 17:14:35;;;;;;;6.37;2.03;;;;;;;;;;4886096;29;21581;-68